Latest Coastal Weather Observations for Cape Sorell

IDT60701

Issued at 4:52 am EST Thursday 3 September 2026 (issued every 10 minutes, with the page automatically refreshed every 10 minutes)

About coastal observations | Map of coastal stations | Coastal observations for TAS | Marine services | Other Formats
Station Details ID: 097000 Name: CAPE SORELL Lat: -42.20 Lon: 145.17 Height: 19.3 m
Data from the previous 72 hours. | See also: Recent months at Cape Sorell
Date/Time
EST
Wind Sea
Height
m
Swell Vis
km
Cloud Weather Temp
°C
Press
MSL
hPa
Rain since
9am
mm
Dir  Spd
kts
Gust
kts
Height
m
Period
s
Dir
03/04:30am WNW 28 37 - - - - - - - 10.5 996.5 3.6
03/04:29am WNW 29 37 - - - - - - - 10.5 996.4 3.6
03/04:15am NW 27 37 - - - - - - - 11.6 995.9 2.2
03/04:14am NW 26 37 - - - - - - - 12.4 995.9 2.2
03/04:07am NW 26 34 - - - - - - - 12.4 995.4 2.2
03/04:00am NW 27 34 - - - - - - - 12.5 995.7 2.2
03/03:48am NNW 27 41 - - - - - - - 12.5 995.7 2.2
03/03:30am NNW 28 36 - - - - - - - 12.4 995.8 2.2
03/03:12am NNW 24 32 - - - - - - - 12.5 996.4 2.0
03/03:00am NNW 26 35 - - - - - - Rain 12.6 996.6 2.0
03/02:32am NNW 25 35 - - - - - - - 12.9 997.3 1.6
03/02:30am NNW 26 34 - - - - - - - 12.9 997.3 1.6
03/02:26am NNW 27 34 - - - - - - - 12.9 997.5 1.6
03/02:00am NNW 25 36 - - - - - - - 12.9 998.0 1.6
03/01:41am NNW 24 34 - - - - - - - 12.8 998.4 1.6
03/01:33am NNW 24 33 - - - - - - - 12.8 998.7 1.6
03/01:30am NNW 24 32 - - - - - - - 12.7 998.6 1.6
03/01:09am NNW 23 33 - - - - - - - 12.6 999.0 1.6
03/01:00am NNW 24 32 - - - - - - - 12.5 999.0 1.6
03/12:49am NNW 24 31 - - - - - - - 12.2 999.3 1.6
03/12:30am NNW 23 34 - - - - - - - 12.5 999.3 1.6
03/12:25am NNW 23 33 - - - - - - - 12.5 999.4 1.6
03/12:00am NNW 23 32 - - - - - - Recent precip. 12.4 999.8 1.6
 
Date/Time
EST
Wind Sea
Height
m
Swell Vis
km
Cloud Weather Temp
°C
Press
MSL
hPa
Rain since
9am
mm
Dir  Spd
kts
Gust
kts
Height
m
Period
s
Dir
02/11:56pm NNW 23 32 - - - - - - - 12.4 999.9 1.6
02/11:37pm NNW 24 35 - - - - - - - 12.6 1000.4 1.4
02/11:32pm NNW 23 29 - - - - - - - 12.5 1000.6 1.4
02/11:30pm NNW 23 29 - - - - - - - 12.5 1000.5 1.4
02/11:00pm NNW 22 34 - - - - - - - 12.4 1001.0 1.4
02/10:30pm NNW 22 34 - - - - - - - 12.1 1001.5 1.4
02/10:25pm NNW 22 31 - - - - - - - 12.2 1001.7 1.4
02/10:00pm NNW 22 32 - - - - - - - 12.3 1001.8 1.2
02/09:38pm NNW 21 31 - - - - - - - 12.2 1002.0 1.2
02/09:30pm NNW 22 31 - - - - - - - 12.2 1002.2 1.2
02/09:00pm NNW 22 30 - - - - - - - 12.1 1002.6 1.2
02/08:30pm NNW 22 33 - - - - - - - 12.0 1002.8 1.2
02/08:26pm NNW 20 33 - - - - - - - 12.0 1002.8 1.2
02/08:00pm NNW 20 27 - - - - - - - 11.8 1002.9 1.2
02/07:30pm NNW 22 30 - - - - - - - 11.8 1003.4 1.2
02/07:03pm NW 17 24 - - - - - - - 12.2 1003.7 0.8
02/07:00pm NW 19 25 - - - - - - - 12.3 1003.7 0.6
02/06:44pm NNW 20 31 - - - - - - - 12.6 1003.6 0.4
02/06:30pm NNW 19 24 - - - - - - - 12.6 1003.8 0.4
02/06:00pm NNW 21 27 - - - - - - - 12.4 1003.8 0.4
02/05:30pm NNW 20 24 - - - - - - - 12.2 1004.0 0.4
02/05:00pm NNW 20 27 - - - - - - - 12.2 1004.3 0.4
02/04:30pm NNW 20 26 - - - - - - - 12.3 1004.4 0.4
02/04:00pm NNW 19 26 - - - - - - - 12.3 1004.8 0.4
02/03:30pm NNW 21 25 - - - - - - - 12.3 1005.0 0.4
02/03:06pm NNW 20 26 - - - - - - - 12.2 1005.2 0.4
02/03:00pm NNW 20 26 - - - - - - Recent precip. 12.2 1005.2 0.4
02/02:47pm NW 21 33 - - - - - - - 12.4 1005.2 0.4
02/02:30pm NW 22 27 - - - - - - - 12.6 1005.1 0.4
02/02:00pm NNW 21 25 - - - - - - - 12.3 1005.3 0.2
02/01:30pm NNW 21 29 - - - - - - - 12.4 1005.8 0.2
02/01:21pm NNW 20 28 - - - - - - - 12.3 1005.7 0.0
02/01:09pm NNW 20 31 - - - - - - - 12.3 1005.8 0.0
02/01:00pm NNW 17 24 - - - - - - - 12.3 1005.9 0.0
02/12:30pm NNW 23 30 - - - - - - - 12.1 1006.4 0.0
02/12:16pm NNW 17 28 - - - - - - - 12.3 1006.5 0.0
02/12:00pm NNW 18 25 - - - - - - - 12.6 1006.9 0.0
02/11:30am NNW 20 25 - - - - - - - 12.8 1007.1 0.0
02/11:00am NW 18 23 - - - - - - - 12.6 1007.2 0.0
02/10:30am NNW 15 20 - - - - - - - 12.1 1007.5 0.0
02/10:00am NW 15 20 - - - - - - - 11.8 1007.8 0.0
02/09:49am NW 13 18 - - - - - - - 11.5 1008.0 0.0
02/09:30am NW 18 28 - - - - - - - 11.1 1008.1 0.0
02/09:29am NW 18 28 - - - - - - - 11.4 1008.2 0.0
02/09:00am NW 15 22 - - - - - - Recent precip. 11.0 1007.9 10.2
02/08:47am NW 11 19 - - - - - - - 10.6 1008.1 10.2
02/08:39am NW 13 25 - - - - - - - 10.0 1008.0 10.0
02/08:35am NW 16 26 - - - - - - - 10.3 1008.0 10.0
02/08:30am NW 15 26 - - - - - - - 10.0 1008.1 10.0
02/08:29am NW 14 26 - - - - - - - 10.1 1008.1 10.0
02/08:25am NW 12 15 - - - - - - - 10.5 1008.1 10.0
02/08:02am NW 15 29 - - - - - - - 10.8 1008.0 10.0
02/08:00am NW 15 23 - - - - - - - 10.6 1008.0 10.0
02/07:53am WNW 16 23 - - - - - - - 10.4 1008.0 10.0
02/07:36am W 15 29 - - - - - - - 11.1 1007.6 9.8
02/07:35am W 15 20 - - - - - - - 11.1 1007.7 9.8
02/07:30am W 16 20 - - - - - - - 11.0 1007.5 9.8
02/07:18am NW 15 27 - - - - - - - 11.7 1007.2 9.6
02/07:00am NW 17 23 - - - - - - - 11.5 1007.1 9.6
02/06:30am WNW 19 24 - - - - - - - 11.1 1007.0 9.6
02/06:14am NW 15 21 - - - - - - - 10.8 1007.1 9.6
02/06:02am NW 15 26 - - - - - - - 11.1 1007.1 9.6
02/06:00am NW 13 26 - - - - - - - 11.3 1007.1 9.6
02/05:30am NW 11 19 - - - - - - - 11.5 1007.0 9.6
02/05:00am NW 14 19 - - - - - - - 11.3 1007.0 9.6
02/04:30am WNW 15 22 - - - - - - - 11.1 1006.8 9.6
02/04:00am WNW 15 19 - - - - - - - 10.7 1006.9 9.6
02/03:30am WNW 16 21 - - - - - - - 10.9 1006.6 9.6
02/03:00am WNW 15 22 - - - - - - - 10.7 1006.7 9.6
02/02:30am WNW 13 17 - - - - - - - 10.8 1007.0 9.6
02/02:00am W 14 19 - - - - - - - 10.6 1007.1 9.6
02/01:30am W 12 17 - - - - - - - 10.3 1007.1 9.6
02/01:00am W 10 14 - - - - - - - 10.1 1007.0 9.6
02/12:30am W 12 16 - - - - - - - 10.2 1007.0 9.6
02/12:00am W 13 17 - - - - - - - 9.9 1007.2 9.6
 
Date/Time
EST
Wind Sea
Height
m
Swell Vis
km
Cloud Weather Temp
°C
Press
MSL
hPa
Rain since
9am
mm
Dir  Spd
kts
Gust
kts
Height
m
Period
s
Dir
01/11:30pm W 14 17 - - - - - - - 9.8 1007.1 9.6
01/11:00pm WNW 10 17 - - - - - - - 9.5 1007.2 9.6
01/10:30pm WSW 12 15 - - - - - - - 9.5 1007.2 9.6
01/10:00pm WSW 12 16 - - - - - - - 9.6 1007.2 9.6
01/09:30pm WSW 11 14 - - - - - - - 10.4 1006.9 9.6
01/09:00pm WSW 13 16 - - - - - - - 10.3 1006.6 9.6
01/08:30pm WSW 17 19 - - - - - - - 10.8 1006.2 9.6
01/08:00pm WSW 17 22 - - - - - - - 11.6 1005.4 9.6
01/07:30pm WSW 21 27 - - - - - - - 11.7 1004.7 9.6
01/07:20pm WSW 21 25 - - - - - - - 11.5 1004.3 9.6
01/07:02pm NW 20 35 - - - - - - - 12.4 1003.8 9.6
01/07:00pm NW 19 33 - - - - - - - 13.1 1003.8 9.4
01/06:30pm NNW 21 26 - - - - - - - 13.2 1003.3 7.6
01/06:00pm NNW 23 30 - - - - - - Recent precip. 13.1 1002.9 7.0
01/05:30pm NNW 20 29 - - - - - - - 13.0 1003.1 6.4
01/05:26pm NNW 20 29 - - - - - - - 13.0 1003.1 6.4
01/05:07pm NNW 22 33 - - - - - - - 12.9 1003.1 6.4
01/05:00pm N 24 31 - - - - - - - 12.9 1003.1 6.4
01/04:30pm NNW 25 31 - - - - - - - 12.9 1003.3 5.2
01/04:00pm N 26 31 - - - - - - - 12.7 1003.8 3.4
01/03:30pm N 27 33 - - - - - - - 13.0 1003.8 1.8
01/03:00pm NNW 23 31 - - - - - - Recent precip. 13.2 1004.4 0.8
01/02:30pm N 28 34 - - - - - - - 13.6 1004.4 0.4
01/02:14pm N 28 37 - - - - - - - 14.2 1004.5 0.2
01/02:00pm NNW 26 35 - - - - - - - 14.6 1004.7 0.0
01/01:46pm N 23 37 - - - - - - - 14.9 1005.0 0.0
01/01:30pm N 23 29 - - - - - - - 15.0 1005.2 0.0
01/01:00pm N 28 34 - - - - - - - 14.7 1006.0 0.0
01/12:51pm N 27 34 - - - - - - - 14.7 1006.5 0.0
01/12:30pm N 31 41 - - - - - - - 15.3 1007.0 0.0
01/12:08pm N 30 40 - - - - - - - 15.4 1007.3 0.0
01/12:00pm N 28 36 - - - - - - - 15.4 1007.9 0.0
01/11:46am N 28 35 - - - - - - - 15.3 1008.0 0.0
01/11:32am N 28 39 - - - - - - - 15.4 1008.3 0.0
01/11:30am N 28 35 - - - - - - - 15.5 1008.5 0.0
01/11:00am N 22 26 - - - - - - - 15.2 1009.5 0.0
01/10:30am N 27 31 - - - - - - - 15.1 1009.9 0.0
01/10:00am N 27 33 - - - - - - - 15.0 1010.3 0.0
01/09:30am N 26 33 - - - - - - - 14.9 1011.1 0.0
01/09:00am N 26 33 - - - - - - - 14.3 1011.7 0.2
01/08:30am N 21 27 - - - - - - - 13.4 1011.8 0.2
01/08:00am N 19 26 - - - - - - - 13.2 1012.3 0.2
01/07:30am N 23 30 - - - - - - - 13.8 1012.6 0.2
01/07:00am N 24 29 - - - - - - - 13.7 1012.9 0.2
01/06:30am N 17 20 - - - - - - - 12.5 1013.4 0.2
01/06:00am N 16 23 - - - - - - - 12.2 1013.8 0.2
01/05:30am NNE 15 18 - - - - - - - 11.8 1014.5 0.2
01/05:00am N 16 19 - - - - - - - 11.6 1015.2 0.2
01/04:30am NNE 13 17 - - - - - - - 11.0 1015.7 0.2
01/04:17am NNE 15 24 - - - - - - - 10.8 1016.0 0.2
01/04:00am N 20 24 - - - - - - - 11.1 1016.2 0.2
01/03:30am N 19 24 - - - - - - - 10.2 1017.1 0.2
01/03:00am N 19 24 - - - - - - - 9.8 1017.9 0.2
01/02:30am N 22 27 - - - - - - - 9.7 1018.6 0.2
01/02:00am N 19 24 - - - - - - - 9.6 1019.4 0.2
01/01:30am N 18 21 - - - - - - - 10.4 1019.9 0.2
01/01:00am N 17 20 - - - - - - - 10.4 1020.2 0.2
01/12:30am N 15 18 - - - - - - - 10.5 1020.7 0.2
01/12:00am N 17 20 - - - - - - - 10.6 1021.1 0.2
 
Date/Time
EST
Wind Sea
Height
m
Swell Vis
km
Cloud Weather Temp
°C
Press
MSL
hPa
Rain since
9am
mm
Dir  Spd
kts
Gust
kts
Height
m
Period
s
Dir
31/11:30pm N 16 19 - - - - - - - 10.5 1021.5 0.2
31/11:00pm N 14 18 - - - - - - - 10.7 1022.4 0.2
31/10:30pm N 14 17 - - - - - - - 10.8 1023.0 0.2
31/10:00pm N 14 18 - - - - - - - 11.0 1023.6 0.2
31/09:30pm NNW 11 16 - - - - - - - 11.0 1023.8 0.2
31/09:00pm NNW 12 16 - - - - - - - 10.8 1024.3 0.2
31/08:30pm NNW 9 13 - - - - - - - 11.1 1024.4 0.2
31/08:00pm NNW 10 16 - - - - - - - 10.9 1024.8 0.2
31/07:30pm NNW 11 16 - - - - - - - 10.9 1024.7 0.2
31/07:00pm NNW 11 14 - - - - - - - 10.9 1024.9 0.2
31/06:30pm NNW 11 16 - - - - - - - 11.1 1025.0 0.2
31/06:00pm NNW 9 13 - - - - - - - 11.0 1025.1 0.2
31/05:30pm NNW 9 13 - - - - - - - 11.3 1025.3 0.2
31/05:00pm NNW 9 15 - - - - - - - 11.2 1025.6 0.2
31/04:30pm NNW 12 14 - - - - - - - 11.7 1026.0 0.2
31/04:00pm NW 9 14 - - - - - - - 12.0 1026.1 0.2
31/03:30pm NNW 10 13 - - - - - - - 12.3 1026.4 0.2
31/03:00pm NNW 10 13 - - - - - - - 12.0 1026.6 0.2
31/02:30pm NNW 11 14 - - - - - - - 11.9 1026.9 0.2
31/02:00pm N 10 13 - - - - - - - 11.4 1027.1 0.2
31/01:30pm NNW 10 14 - - - - - - - 12.6 1027.5 0.2
31/01:00pm NNW 9 13 - - - - - - - 12.3 1027.8 0.2
31/12:30pm NNW 11 15 - - - - - - - 13.0 1028.0 0.2
31/12:00pm NNW 10 13 - - - - - - - 12.4 1028.3 0.2
31/11:30am NNW 8 11 - - - - - - - 12.1 1028.7 0.2
31/11:00am NNW 8 11 - - - - - - - 11.7 1029.1 0.2
31/10:30am N 7 9 - - - - - - - 11.8 1029.3 0.2
31/10:00am N 6 9 - - - - - - - 11.5 1029.4 0.2
31/09:30am NNW 8 11 - - - - - - - 11.6 1029.6 0.2
31/09:00am NW 8 10 - - - - - - - 11.9 1029.7 0.4
31/08:30am NW 9 11 - - - - - - - 11.8 1029.4 0.4
31/08:00am NNW 7 10 - - - - - - - 12.0 1029.4 0.4
31/07:30am NW 8 11 - - - - - - - 11.4 1029.1 0.4
31/07:00am NW 6 9 - - - - - - - 11.1 1029.1 0.4
31/06:30am NW 8 11 - - - - - - - 11.1 1028.8 0.4
31/06:00am NW 7 11 - - - - - - - 10.9 1028.8 0.4
31/05:30am NNW 6 8 - - - - - - - 11.3 1028.7 0.4
31/05:00am WNW 8 11 - - - - - - - 11.0 1028.8 0.4

Other formats

Comma delimited format used in spreadsheet applications
http://www.bom.gov.au/fwo/IDT60701/IDT60701.94974.axf

JavaScript Object Notation format (JSON) in row-major order
http://www.bom.gov.au/fwo/IDT60701/IDT60701.94974.json

Data quality

Most of these data are generated automatically and are frequently updated. Quality checks on data are not normally performed. It is possible for incorrect values to appear. Refer to information at About Latest Weather Observations and please check the disclaimer before using these data.